Погода Ломовичина 2 недели

Гомельская область, Белоруссия

20 июля-02 августа
  • 20июля
    Сегодня
    +15°
    +26°
    Облачно с прояснениями
    ВремяПогодаТемператураВлажностьДавлениеВетер, м/сВероятность осадков
    00:00Ясно и безоблачно+18°C71 %751 мм0.8 м/с2 %
    03:00Ясно и безоблачно+17°C82 %750 мм0.4 м/с2 %
    06:00Ясно и безоблачно+15°C81 %750 мм0.6 м/с2 %
    09:00Ясно и безоблачно+20°C60 %749 мм1.0 м/с2 %
    12:00Ясно и безоблачно+23°C43 %749 мм1.7 м/с2 %
    15:00Облачно с прояснениями+25°C39 %748 мм1.7 м/с5 %
    18:00Ясно и безоблачно+24°C37 %747 мм1.9 м/с3 %
    21:00Практически безоблачно+21°C51 %747 мм0.5 м/с2 %
  • 21июля
    Воскресенье
    +16°
    +27°
    Облачно с прояснениями
    ВремяПогодаТемператураВлажностьДавлениеВетер, м/сВероятность осадков
    00:00Ясно и безоблачно+19°C70 %748 мм0.5 м/с2 %
    03:00Ясно и безоблачно+17°C81 %748 мм0.3 м/с2 %
    06:00Ясно и безоблачно+16°C86 %747 мм0.4 м/с2 %
    09:00Ясно и безоблачно+21°C58 %748 мм0.7 м/с2 %
    12:00Облачно с прояснениями+24°C45 %748 мм1.1 м/с2 %
    15:00Облачно с прояснениями+26°C42 %747 мм0.9 м/с9 %
    18:00Практически безоблачно+26°C39 %746 мм1.5 м/с6 %
    21:00Ясно и безоблачно+22°C58 %746 мм0.5 м/с3 %
  • 22июля
    Понедельник
    +15°
    +27°
    Практически безоблачно
    ВремяПогодаТемператураВлажностьДавлениеВетер, м/сВероятность осадков
    00:00Ясно и безоблачно+20°C67 %747 мм0.6 м/с2 %
    03:00Ясно и безоблачно+18°C72 %747 мм0.6 м/с3 %
    06:00Небольшая облачность+16°C81 %747 мм0.6 м/с12 %
    09:00Практически безоблачно+21°C67 %747 мм0.9 м/с13 %
    12:00Практически безоблачно+25°C49 %747 мм1.1 м/с30 %
    15:00Практически безоблачно+27°C47 %747 мм1.3 м/с42 %
    18:00Небольшая облачность+24°C45 %747 мм1.8 м/с49 %
    21:00Ясно и безоблачно+20°C70 %748 мм0.5 м/с18 %
  • 23июля
    Вторник
    +15°
    +28°
    Ясно и безоблачно
    ВремяПогодаТемператураВлажностьДавлениеВетер, м/сВероятность осадков
    00:00Ясно и безоблачно+18°C88 %748 мм0.4 м/с2 %
    03:00Ясно и безоблачно+17°C94 %748 мм0.3 м/с4 %
    06:00Ясно и безоблачно+16°C93 %748 мм0.6 м/с4 %
    09:00Ясно и безоблачно+21°C62 %749 мм1.1 м/с2 %
    12:00Ясно и безоблачно+24°C48 %748 мм1.6 м/с40 %
    15:00Ясно и безоблачно+27°C43 %748 мм1.9 м/с42 %
    18:00Ясно и безоблачно+26°C44 %747 мм1.7 м/с27 %
    21:00Небольшая облачность+22°C60 %748 мм0.7 м/с16 %
  • 24июля
    Среда
    +16°
    +27°
    Практически безоблачно
    ВремяПогодаТемператураВлажностьДавлениеВетер, м/сВероятность осадков
    00:00Практически безоблачно+19°C76 %748 мм0.6 м/с2 %
    03:00Ясно и безоблачно+17°C89 %747 мм0.6 м/с3 %
    06:00Небольшая облачность+16°C91 %747 мм0.8 м/с2 %
    09:00Небольшая облачность+21°C70 %747 мм1.4 м/с4 %
    12:00Облачно с прояснениями+23°C58 %747 мм1.4 м/с39 %
    15:00Практически безоблачно+26°C50 %747 мм1.6 м/с50 %
    18:00Практически безоблачно+25°C47 %746 мм2.0 м/с48 %
    21:00Ясно и безоблачно+21°C53 %746 мм0.9 м/с26 %
Мы используем cookies
Соглашаюсь